»·PEaware :: UAL465 KSFO-KPDX

UAL465 :: KSFO-KPDX

FLIGHT INFORMATION

Flight Status: Arrived
Operator:
United Airlines
More flights by this operator :: More flights under this callsign
Pilot: Matt G. (13672)
Aircraft: AIRBUS A320
(A320)
More flights by this aircraft type
Origin: KSFO San Francisco Intl
United States
Destination: KPDX Portland Intl
United States
More flights between these airports :: More routes between these airports
Route: TRUKN2 GRTFL MACHU TMBRS2
File this flight plan on PilotEdge
Remarks:
Altitude:
(Current/Filed)
30,000ft
Speed:
(Current/Filed)
466kts
Departed: 08-Oct-18 03:07 PM
Arrived: 08-Oct-18 04:29 PM
Distance/Time
Traveled:
478nm/1:21
Distance/Time
To Go:
Arrived

Flight Plot

Page will automatically refresh every two minutes.


Map Options




Map Legend


Flown Route
Filed Route
Departure Airport
Arrival Airport
Navaid (VOR, NDB)
Fix

Horizontal Profiles

Position Reports

Time Latitude Longitude Heading Altitude Ground
Speed
08-Oct-18 14:46 37.619443 -122.384828 119 21ft 0kts
08-Oct-18 14:47 37.619443 -122.384828 119 21ft 0kts
08-Oct-18 14:48 37.619443 -122.384828 119 21ft 0kts
08-Oct-18 14:49 37.619443 -122.384828 119 21ft 0kts
08-Oct-18 14:50 37.619443 -122.384828 119 21ft 0kts
08-Oct-18 14:51 37.619443 -122.384828 119 21ft 0kts
08-Oct-18 14:52 37.619443 -122.384828 119 21ft 0kts
08-Oct-18 14:53 37.619443 -122.384828 119 21ft 0kts
08-Oct-18 14:54 37.619443 -122.384828 119 21ft 0kts
08-Oct-18 14:55 37.619443 -122.384828 119 21ft 0kts
08-Oct-18 14:56 37.619443 -122.384828 119 21ft 0kts
08-Oct-18 14:57 37.619443 -122.384828 119 21ft 0kts
08-Oct-18 14:58 37.619443 -122.384828 119 21ft 0kts
08-Oct-18 14:59 37.619443 -122.384828 119 21ft 0kts
08-Oct-18 15:00 37.619443 -122.384828 119 21ft 0kts
08-Oct-18 15:01 37.619443 -122.384828 119 21ft 0kts
08-Oct-18 15:02 37.619512 -122.384981 119 21ft 2kts
08-Oct-18 15:03 37.619649 -122.385688 68 21ft 2kts
08-Oct-18 15:04 37.619635 -122.385727 64 21ft 0kts
08-Oct-18 15:05 37.620196 -122.383285 116 21ft 18kts
08-Oct-18 15:06 37.615527 -122.380402 206 21ft 30kts
08-Oct-18 15:07 37.608596 -122.384149 121 21ft 18kts
08-Oct-18 15:08 37.608205 -122.382963 83 21ft 11kts
08-Oct-18 15:09 37.633990 -122.365512 29 725ft 195kts
08-Oct-18 15:10 37.666145 -122.312480 52 4435ft 189kts
08-Oct-18 15:11 37.694528 -122.259451 54 7049ft 208kts
08-Oct-18 15:12 37.747114 -122.214125 358 8574ft 285kts
08-Oct-18 15:13 37.831477 -122.216984 357 10811ft 334kts
08-Oct-18 15:14 37.931189 -122.219942 358 12608ft 378kts
08-Oct-18 15:15 38.037624 -122.222924 358 14972ft 392kts
08-Oct-18 15:16 38.146278 -122.225857 358 17071ft 403kts
08-Oct-18 15:17 38.254900 -122.228758 358 18842ft 415kts
08-Oct-18 15:18 38.371486 -122.233309 354 20450ft 429kts
08-Oct-18 15:19 38.485691 -122.245248 354 21986ft 438kts
08-Oct-18 15:20 38.607190 -122.257898 354 23466ft 447kts
08-Oct-18 15:21 38.729173 -122.270637 354 24834ft 454kts
08-Oct-18 15:22 38.855578 -122.283888 354 26111ft 461kts
08-Oct-18 15:23 38.983619 -122.297352 354 27285ft 467kts
08-Oct-18 15:24 39.111743 -122.310907 354 28324ft 472kts
08-Oct-18 15:25 39.241116 -122.324662 354 29619ft 469kts
08-Oct-18 15:26 39.370030 -122.338372 354 29815ft 467kts
08-Oct-18 15:27 39.497601 -122.351973 354 29817ft 468kts
08-Oct-18 15:28 39.627209 -122.365854 354 29819ft 468kts
08-Oct-18 15:29 39.755923 -122.379693 354 29820ft 469kts
08-Oct-18 15:30 39.885316 -122.393659 354 29846ft 469kts
08-Oct-18 15:31 40.014942 -122.407707 354 29845ft 469kts
08-Oct-18 15:32 40.143094 -122.421628 354 29844ft 469kts
08-Oct-18 15:33 40.271141 -122.435610 354 29879ft 465kts
08-Oct-18 15:34 40.398453 -122.449566 354 29850ft 461kts
08-Oct-18 15:35 40.525506 -122.463532 354 29813ft 459kts
08-Oct-18 15:36 40.652363 -122.477532 354 29818ft 459kts
08-Oct-18 15:37 40.779027 -122.491568 354 29834ft 459kts
08-Oct-18 15:38 40.905714 -122.505665 354 29844ft 459kts
08-Oct-18 15:39 41.032402 -122.519814 354 29912ft 458kts
08-Oct-18 15:40 41.154489 -122.533502 354 30058ft 458kts
08-Oct-18 15:41 41.280443 -122.547678 354 30042ft 456kts
08-Oct-18 15:42 41.406287 -122.561894 354 30025ft 455kts
08-Oct-18 15:43 41.532112 -122.575837 355 30026ft 455kts
08-Oct-18 15:44 41.657985 -122.583979 356 30026ft 454kts
08-Oct-18 15:45 41.783895 -122.592194 356 30030ft 454kts
08-Oct-18 15:46 41.909615 -122.600424 356 30031ft 453kts
08-Oct-18 15:47 42.034296 -122.608625 356 30066ft 449kts
08-Oct-18 15:48 42.155478 -122.616622 356 30001ft 450kts
08-Oct-18 15:49 42.280388 -122.624927 356 30015ft 451kts
08-Oct-18 15:50 42.405270 -122.633270 356 30039ft 451kts
08-Oct-18 15:51 42.529885 -122.641633 356 30044ft 451kts
08-Oct-18 15:52 42.654919 -122.650058 355 30039ft 450kts
08-Oct-18 15:53 42.778616 -122.658424 355 30049ft 448kts
08-Oct-18 15:54 42.882091 -122.665448 355 30050ft 448kts
08-Oct-18 15:55 43.026076 -122.675257 355 30051ft 448kts
08-Oct-18 15:56 43.127380 -122.682189 355 30056ft 448kts
08-Oct-18 15:57 43.270908 -122.692053 355 30061ft 448kts
08-Oct-18 15:58 43.395089 -122.700623 355 30060ft 448kts
08-Oct-18 15:59 43.498212 -122.707734 355 30061ft 449kts
08-Oct-18 16:00 43.622357 -122.716320 355 30045ft 449kts
08-Oct-18 16:01 43.747039 -122.724976 355 30031ft 449kts
08-Oct-18 16:02 43.871338 -122.733637 355 30031ft 450kts
08-Oct-18 16:03 43.996195 -122.742370 355 30032ft 450kts
08-Oct-18 16:04 44.119340 -122.751025 355 30032ft 450kts
08-Oct-18 16:05 44.242273 -122.743997 2 29009ft 457kts
08-Oct-18 16:06 44.367115 -122.731739 2 26604ft 445kts
08-Oct-18 16:07 44.487661 -122.719845 2 24395ft 430kts
08-Oct-18 16:08 44.599701 -122.708746 2 22490ft 373kts
08-Oct-18 16:09 44.695180 -122.699126 2 19426ft 353kts
08-Oct-18 16:10 44.789020 -122.689672 1 16739ft 321kts
08-Oct-18 16:11 44.875460 -122.681006 1 15123ft 316kts
08-Oct-18 16:12 44.962300 -122.672235 2 14014ft 304kts
08-Oct-18 16:13 45.044847 -122.663879 4 12626ft 301kts
08-Oct-18 16:14 45.126586 -122.655500 6 11174ft 299kts
08-Oct-18 16:15 45.208093 -122.647179 4 9767ft 294kts
08-Oct-18 16:16 45.286162 -122.662936 337 8433ft 290kts
08-Oct-18 16:17 45.357579 -122.702219 338 7228ft 282kts
08-Oct-18 16:18 45.423289 -122.738295 338 6005ft 277kts
08-Oct-18 16:19 45.486806 -122.773173 338 5235ft 254kts
08-Oct-18 16:20 45.545142 -122.805417 338 5000ft 228kts
08-Oct-18 16:21 45.592856 -122.857567 301 4346ft 227kts
08-Oct-18 16:22 45.626054 -122.933193 312 3831ft 225kts
08-Oct-18 16:23 45.673792 -122.989256 326 3784ft 227kts
08-Oct-18 16:24 45.717460 -122.954803 95 3793ft 218kts
08-Oct-18 16:25 45.695649 -122.878707 118 3831ft 185kts
08-Oct-18 16:26 45.673721 -122.822404 118 3231ft 148kts
08-Oct-18 16:27 45.654502 -122.773322 119 2402ft 142kts
08-Oct-18 16:28 45.635590 -122.725012 119 1667ft 141kts
08-Oct-18 16:29 45.617790 -122.679439 118 976ft 140kts
08-Oct-18 16:30 45.599927 -122.633699 118 272ft 139kts
08-Oct-18 16:31 45.586668 -122.599661 116 38ft 40kts
08-Oct-18 16:32 45.587765 -122.597190 303 38ft 8kts
08-Oct-18 16:33 45.589724 -122.601770 348 38ft 8kts
08-Oct-18 16:34 45.590236 -122.600172 121 38ft 2kts

Navigation Log

Ident Type
Flight plan parsing failed, navigation log unavailable